sensor_id;sensor_type;location;lat;lon;timestamp;P1;durP1;ratioP1;P2;durP2;ratioP2
13584;SDS011;6863;48.402;9.994;2023-05-14T00:01:34;8.80;;;7.93;;
13584;SDS011;6863;48.402;9.994;2023-05-14T00:04:00;9.70;;;8.70;;
13584;SDS011;6863;48.402;9.994;2023-05-14T00:06:26;9.63;;;8.63;;
13584;SDS011;6863;48.402;9.994;2023-05-14T00:08:52;11.83;;;9.13;;
13584;SDS011;6863;48.402;9.994;2023-05-14T00:11:17;9.70;;;8.80;;
13584;SDS011;6863;48.402;9.994;2023-05-14T00:13:43;10.07;;;9.07;;
13584;SDS011;6863;48.402;9.994;2023-05-14T00:16:09;11.37;;;9.50;;
13584;SDS011;6863;48.402;9.994;2023-05-14T00:18:35;9.93;;;8.93;;
13584;SDS011;6863;48.402;9.994;2023-05-14T00:21:00;11.20;;;10.07;;
13584;SDS011;6863;48.402;9.994;2023-05-14T00:23:26;10.73;;;9.63;;
13584;SDS011;6863;48.402;9.994;2023-05-14T00:25:51;19.43;;;10.30;;
13584;SDS011;6863;48.402;9.994;2023-05-14T00:28:17;15.20;;;10.47;;
13584;SDS011;6863;48.402;9.994;2023-05-14T00:30:43;13.33;;;10.10;;
13584;SDS011;6863;48.402;9.994;2023-05-14T00:33:08;10.60;;;9.60;;
13584;SDS011;6863;48.402;9.994;2023-05-14T00:35:34;10.57;;;9.47;;
13584;SDS011;6863;48.402;9.994;2023-05-14T00:38:00;10.90;;;9.47;;
13584;SDS011;6863;48.402;9.994;2023-05-14T00:40:27;13.57;;;9.77;;
13584;SDS011;6863;48.402;9.994;2023-05-14T00:42:53;10.20;;;9.23;;
13584;SDS011;6863;48.402;9.994;2023-05-14T00:45:19;10.90;;;9.83;;
13584;SDS011;6863;48.402;9.994;2023-05-14T00:47:46;10.57;;;9.47;;
13584;SDS011;6863;48.402;9.994;2023-05-14T00:50:12;10.23;;;9.23;;
13584;SDS011;6863;48.402;9.994;2023-05-14T00:52:39;10.67;;;9.57;;
13584;SDS011;6863;48.402;9.994;2023-05-14T00:55:06;10.80;;;9.70;;
13584;SDS011;6863;48.402;9.994;2023-05-14T00:57:32;10.93;;;9.83;;
13584;SDS011;6863;48.402;9.994;2023-05-14T01:00:00;11.53;;;10.20;;
13584;SDS011;6863;48.402;9.994;2023-05-14T01:02:25;12.70;;;10.67;;
13584;SDS011;6863;48.402;9.994;2023-05-14T01:04:51;11.53;;;10.30;;
13584;SDS011;6863;48.402;9.994;2023-05-14T01:10:13;11.13;;;9.57;;
13584;SDS011;6863;48.402;9.994;2023-05-14T01:15:25;10.97;;;9.50;;
13584;SDS011;6863;48.402;9.994;2023-05-14T01:17:58;12.37;;;9.60;;
13584;SDS011;6863;48.402;9.994;2023-05-14T01:20:27;11.03;;;9.93;;
13584;SDS011;6863;48.402;9.994;2023-05-14T01:22:53;12.17;;;10.97;;
13584;SDS011;6863;48.402;9.994;2023-05-14T01:25:18;11.73;;;10.53;;
13584;SDS011;6863;48.402;9.994;2023-05-14T01:27:47;11.13;;;9.93;;
13584;SDS011;6863;48.402;9.994;2023-05-14T01:30:26;11.00;;;9.80;;
13584;SDS011;6863;48.402;9.994;2023-05-14T01:32:57;11.80;;;10.43;;
13584;SDS011;6863;48.402;9.994;2023-05-14T01:35:27;12.23;;;10.13;;
13584;SDS011;6863;48.402;9.994;2023-05-14T01:38:01;13.27;;;10.53;;
13584;SDS011;6863;48.402;9.994;2023-05-14T01:40:29;10.80;;;9.80;;
13584;SDS011;6863;48.402;9.994;2023-05-14T01:42:56;11.23;;;10.07;;
13584;SDS011;6863;48.402;9.994;2023-05-14T01:45:22;11.20;;;9.83;;
13584;SDS011;6863;48.402;9.994;2023-05-14T01:47:48;10.73;;;9.47;;
13584;SDS011;6863;48.402;9.994;2023-05-14T01:50:15;12.53;;;10.40;;
13584;SDS011;6863;48.402;9.994;2023-05-14T01:52:40;10.70;;;9.53;;
13584;SDS011;6863;48.402;9.994;2023-05-14T01:55:06;11.13;;;9.97;;
13584;SDS011;6863;48.402;9.994;2023-05-14T01:57:32;11.70;;;10.50;;
13584;SDS011;6863;48.402;9.994;2023-05-14T01:59:58;11.03;;;9.60;;
13584;SDS011;6863;48.402;9.994;2023-05-14T02:02:23;11.07;;;9.87;;
13584;SDS011;6863;48.402;9.994;2023-05-14T02:04:49;10.70;;;9.27;;
13584;SDS011;6863;48.402;9.994;2023-05-14T02:07:14;11.13;;;9.90;;
13584;SDS011;6863;48.402;9.994;2023-05-14T02:09:40;11.93;;;10.73;;
13584;SDS011;6863;48.402;9.994;2023-05-14T02:12:06;11.77;;;10.53;;
13584;SDS011;6863;48.402;9.994;2023-05-14T02:14:32;11.40;;;10.20;;
13584;SDS011;6863;48.402;9.994;2023-05-14T02:16:58;11.20;;;10.10;;
13584;SDS011;6863;48.402;9.994;2023-05-14T02:19:24;11.43;;;10.13;;
13584;SDS011;6863;48.402;9.994;2023-05-14T02:21:49;11.17;;;10.07;;
13584;SDS011;6863;48.402;9.994;2023-05-14T02:24:15;11.43;;;10.33;;
13584;SDS011;6863;48.402;9.994;2023-05-14T02:29:12;11.87;;;10.67;;
13584;SDS011;6863;48.402;9.994;2023-05-14T02:31:37;11.37;;;10.17;;
13584;SDS011;6863;48.402;9.994;2023-05-14T02:34:03;11.30;;;10.10;;
13584;SDS011;6863;48.402;9.994;2023-05-14T02:36:30;12.30;;;11.00;;
13584;SDS011;6863;48.402;9.994;2023-05-14T02:38:57;11.67;;;10.47;;
13584;SDS011;6863;48.402;9.994;2023-05-14T02:41:23;12.23;;;11.00;;
13584;SDS011;6863;48.402;9.994;2023-05-14T02:43:49;12.37;;;10.77;;
13584;SDS011;6863;48.402;9.994;2023-05-14T02:46:14;11.87;;;10.30;;
13584;SDS011;6863;48.402;9.994;2023-05-14T02:48:40;11.57;;;10.37;;
13584;SDS011;6863;48.402;9.994;2023-05-14T02:51:06;11.93;;;10.47;;
13584;SDS011;6863;48.402;9.994;2023-05-14T02:53:31;12.30;;;11.10;;
13584;SDS011;6863;48.402;9.994;2023-05-14T02:55:57;11.90;;;10.70;;
13584;SDS011;6863;48.402;9.994;2023-05-14T02:58:23;12.37;;;10.80;;
13584;SDS011;6863;48.402;9.994;2023-05-14T03:00:48;14.47;;;12.23;;
13584;SDS011;6863;48.402;9.994;2023-05-14T03:03:14;12.07;;;10.93;;
13584;SDS011;6863;48.402;9.994;2023-05-14T03:05:39;14.97;;;11.63;;
13584;SDS011;6863;48.402;9.994;2023-05-14T03:08:05;14.10;;;12.60;;
13584;SDS011;6863;48.402;9.994;2023-05-14T03:10:30;13.77;;;12.30;;
13584;SDS011;6863;48.402;9.994;2023-05-14T03:12:56;13.77;;;12.17;;
13584;SDS011;6863;48.402;9.994;2023-05-14T03:15:22;14.57;;;12.50;;
13584;SDS011;6863;48.402;9.994;2023-05-14T03:17:48;14.63;;;12.83;;
13584;SDS011;6863;48.402;9.994;2023-05-14T03:20:13;14.27;;;12.67;;
13584;SDS011;6863;48.402;9.994;2023-05-14T03:22:39;13.93;;;12.47;;
13584;SDS011;6863;48.402;9.994;2023-05-14T03:25:05;14.17;;;12.67;;
13584;SDS011;6863;48.402;9.994;2023-05-14T03:27:30;13.07;;;11.77;;
13584;SDS011;6863;48.402;9.994;2023-05-14T03:29:57;15.30;;;13.07;;
13584;SDS011;6863;48.402;9.994;2023-05-14T03:32:23;14.50;;;12.83;;
13584;SDS011;6863;48.402;9.994;2023-05-14T03:34:48;13.50;;;12.10;;
13584;SDS011;6863;48.402;9.994;2023-05-14T03:37:14;13.37;;;11.97;;
13584;SDS011;6863;48.402;9.994;2023-05-14T03:39:40;15.13;;;13.53;;
13584;SDS011;6863;48.402;9.994;2023-05-14T03:42:05;14.57;;;12.80;;
13584;SDS011;6863;48.402;9.994;2023-05-14T03:44:31;13.23;;;11.80;;
13584;SDS011;6863;48.402;9.994;2023-05-14T03:46:56;13.37;;;11.87;;
13584;SDS011;6863;48.402;9.994;2023-05-14T03:49:22;16.13;;;14.23;;
13584;SDS011;6863;48.402;9.994;2023-05-14T03:51:48;14.50;;;13.00;;
13584;SDS011;6863;48.402;9.994;2023-05-14T03:54:13;16.07;;;14.37;;
13584;SDS011;6863;48.402;9.994;2023-05-14T03:56:39;15.03;;;13.37;;
13584;SDS011;6863;48.402;9.994;2023-05-14T03:59:05;14.10;;;12.60;;
13584;SDS011;6863;48.402;9.994;2023-05-14T04:01:30;14.67;;;12.90;;
13584;SDS011;6863;48.402;9.994;2023-05-14T04:03:56;19.70;;;12.80;;
13584;SDS011;6863;48.402;9.994;2023-05-14T04:06:22;15.13;;;13.33;;
13584;SDS011;6863;48.402;9.994;2023-05-14T04:08:47;15.97;;;13.97;;
13584;SDS011;6863;48.402;9.994;2023-05-14T04:11:13;14.37;;;12.87;;
13584;SDS011;6863;48.402;9.994;2023-05-14T04:13:38;15.43;;;13.17;;
13584;SDS011;6863;48.402;9.994;2023-05-14T04:16:04;15.23;;;13.37;;
13584;SDS011;6863;48.402;9.994;2023-05-14T04:18:30;13.67;;;12.33;;
13584;SDS011;6863;48.402;9.994;2023-05-14T04:20:58;15.30;;;13.70;;
13584;SDS011;6863;48.402;9.994;2023-05-14T04:23:24;13.73;;;12.40;;
13584;SDS011;6863;48.402;9.994;2023-05-14T04:25:50;14.63;;;12.73;;
13584;SDS011;6863;48.402;9.994;2023-05-14T04:28:18;14.40;;;12.90;;
13584;SDS011;6863;48.402;9.994;2023-05-14T04:30:44;14.83;;;12.93;;
13584;SDS011;6863;48.402;9.994;2023-05-14T04:33:10;13.13;;;11.73;;
13584;SDS011;6863;48.402;9.994;2023-05-14T04:35:35;12.77;;;11.40;;
13584;SDS011;6863;48.402;9.994;2023-05-14T04:38:01;14.47;;;12.17;;
13584;SDS011;6863;48.402;9.994;2023-05-14T04:40:27;14.07;;;12.77;;
13584;SDS011;6863;48.402;9.994;2023-05-14T04:42:52;13.07;;;11.77;;
13584;SDS011;6863;48.402;9.994;2023-05-14T04:45:18;13.63;;;12.17;;
13584;SDS011;6863;48.402;9.994;2023-05-14T04:47:44;14.20;;;12.80;;
13584;SDS011;6863;48.402;9.994;2023-05-14T04:50:10;14.77;;;13.13;;
13584;SDS011;6863;48.402;9.994;2023-05-14T04:52:36;13.90;;;12.50;;
13584;SDS011;6863;48.402;9.994;2023-05-14T04:55:02;14.23;;;12.83;;
13584;SDS011;6863;48.402;9.994;2023-05-14T04:57:29;13.87;;;12.57;;
13584;SDS011;6863;48.402;9.994;2023-05-14T04:59:54;15.33;;;13.37;;
13584;SDS011;6863;48.402;9.994;2023-05-14T05:02:20;13.40;;;12.00;;
13584;SDS011;6863;48.402;9.994;2023-05-14T05:04:45;13.93;;;12.40;;
13584;SDS011;6863;48.402;9.994;2023-05-14T05:07:11;13.17;;;11.77;;
13584;SDS011;6863;48.402;9.994;2023-05-14T05:09:38;14.73;;;12.47;;
13584;SDS011;6863;48.402;9.994;2023-05-14T05:12:03;14.13;;;12.73;;
13584;SDS011;6863;48.402;9.994;2023-05-14T05:14:29;13.47;;;11.53;;
13584;SDS011;6863;48.402;9.994;2023-05-14T05:16:55;13.47;;;12.17;;
13584;SDS011;6863;48.402;9.994;2023-05-14T05:19:20;13.73;;;12.30;;
13584;SDS011;6863;48.402;9.994;2023-05-14T05:21:46;14.00;;;12.50;;
13584;SDS011;6863;48.402;9.994;2023-05-14T05:24:12;12.97;;;11.67;;
13584;SDS011;6863;48.402;9.994;2023-05-14T05:29:09;12.17;;;10.97;;
13584;SDS011;6863;48.402;9.994;2023-05-14T05:31:34;13.97;;;12.10;;
13584;SDS011;6863;48.402;9.994;2023-05-14T05:34:01;11.13;;;10.03;;
13584;SDS011;6863;48.402;9.994;2023-05-14T05:36:27;11.97;;;10.87;;
13584;SDS011;6863;48.402;9.994;2023-05-14T05:38:52;12.13;;;10.90;;
13584;SDS011;6863;48.402;9.994;2023-05-14T05:41:18;11.77;;;10.57;;
13584;SDS011;6863;48.402;9.994;2023-05-14T05:43:43;11.63;;;10.53;;
13584;SDS011;6863;48.402;9.994;2023-05-14T05:46:09;11.70;;;10.53;;
13584;SDS011;6863;48.402;9.994;2023-05-14T05:48:35;11.30;;;10.17;;
13584;SDS011;6863;48.402;9.994;2023-05-14T05:51:04;11.60;;;10.40;;
13584;SDS011;6863;48.402;9.994;2023-05-14T05:53:30;11.17;;;10.07;;
13584;SDS011;6863;48.402;9.994;2023-05-14T05:55:55;11.30;;;10.27;;
13584;SDS011;6863;48.402;9.994;2023-05-14T05:58:21;11.37;;;10.27;;
13584;SDS011;6863;48.402;9.994;2023-05-14T06:00:46;11.33;;;10.17;;
13584;SDS011;6863;48.402;9.994;2023-05-14T06:03:12;13.90;;;11.07;;
13584;SDS011;6863;48.402;9.994;2023-05-14T06:05:38;68.97;;;15.27;;
13584;SDS011;6863;48.402;9.994;2023-05-14T06:08:04;12.13;;;10.83;;
13584;SDS011;6863;48.402;9.994;2023-05-14T06:10:29;12.40;;;11.10;;
13584;SDS011;6863;48.402;9.994;2023-05-14T06:12:55;12.10;;;10.90;;
13584;SDS011;6863;48.402;9.994;2023-05-14T06:15:21;11.87;;;10.67;;
13584;SDS011;6863;48.402;9.994;2023-05-14T06:17:47;14.80;;;11.73;;
13584;SDS011;6863;48.402;9.994;2023-05-14T06:20:12;13.60;;;11.77;;
13584;SDS011;6863;48.402;9.994;2023-05-14T06:22:41;13.20;;;11.80;;
13584;SDS011;6863;48.402;9.994;2023-05-14T06:25:06;13.43;;;11.67;;
13584;SDS011;6863;48.402;9.994;2023-05-14T06:27:32;13.20;;;11.80;;
13584;SDS011;6863;48.402;9.994;2023-05-14T06:29:58;14.67;;;11.67;;
13584;SDS011;6863;48.402;9.994;2023-05-14T06:32:24;12.83;;;11.33;;
13584;SDS011;6863;48.402;9.994;2023-05-14T06:34:49;12.37;;;11.17;;
13584;SDS011;6863;48.402;9.994;2023-05-14T06:37:15;12.07;;;10.63;;
13584;SDS011;6863;48.402;9.994;2023-05-14T06:39:40;11.57;;;10.20;;
13584;SDS011;6863;48.402;9.994;2023-05-14T06:42:14;11.93;;;10.70;;
13584;SDS011;6863;48.402;9.994;2023-05-14T06:44:43;11.87;;;10.73;;
13584;SDS011;6863;48.402;9.994;2023-05-14T06:47:09;12.50;;;10.90;;
13584;SDS011;6863;48.402;9.994;2023-05-14T06:49:35;11.63;;;10.40;;
13584;SDS011;6863;48.402;9.994;2023-05-14T06:52:01;11.40;;;10.30;;
13584;SDS011;6863;48.402;9.994;2023-05-14T06:54:27;10.67;;;9.67;;
13584;SDS011;6863;48.402;9.994;2023-05-14T06:56:53;11.47;;;10.37;;
13584;SDS011;6863;48.402;9.994;2023-05-14T06:59:19;10.97;;;9.87;;
13584;SDS011;6863;48.402;9.994;2023-05-14T07:01:44;10.70;;;9.60;;
13584;SDS011;6863;48.402;9.994;2023-05-14T07:04:10;12.30;;;9.73;;
13584;SDS011;6863;48.402;9.994;2023-05-14T07:06:36;10.30;;;9.33;;
13584;SDS011;6863;48.402;9.994;2023-05-14T07:09:01;9.53;;;8.60;;
13584;SDS011;6863;48.402;9.994;2023-05-14T07:11:27;9.00;;;8.17;;
13584;SDS011;6863;48.402;9.994;2023-05-14T07:13:53;10.80;;;9.40;;
13584;SDS011;6863;48.402;9.994;2023-05-14T07:16:19;10.23;;;8.63;;
13584;SDS011;6863;48.402;9.994;2023-05-14T07:18:44;9.93;;;8.93;;
13584;SDS011;6863;48.402;9.994;2023-05-14T07:21:10;9.40;;;8.50;;
13584;SDS011;6863;48.402;9.994;2023-05-14T07:23:36;8.67;;;7.77;;
13584;SDS011;6863;48.402;9.994;2023-05-14T07:26:05;8.70;;;7.83;;
13584;SDS011;6863;48.402;9.994;2023-05-14T07:28:31;8.83;;;8.00;;
13584;SDS011;6863;48.402;9.994;2023-05-14T07:30:57;9.03;;;8.13;;
13584;SDS011;6863;48.402;9.994;2023-05-14T07:33:23;8.50;;;7.77;;
13584;SDS011;6863;48.402;9.994;2023-05-14T07:35:49;8.80;;;7.97;;
13584;SDS011;6863;48.402;9.994;2023-05-14T07:38:16;9.07;;;8.03;;
13584;SDS011;6863;48.402;9.994;2023-05-14T07:40:42;9.20;;;7.53;;
13584;SDS011;6863;48.402;9.994;2023-05-14T07:43:09;27.47;;;9.03;;
13584;SDS011;6863;48.402;9.994;2023-05-14T07:45:37;9.13;;;7.80;;
13584;SDS011;6863;48.402;9.994;2023-05-14T07:48:03;9.37;;;8.17;;
13584;SDS011;6863;48.402;9.994;2023-05-14T07:50:29;8.10;;;7.30;;
13584;SDS011;6863;48.402;9.994;2023-05-14T07:52:55;8.30;;;7.23;;
13584;SDS011;6863;48.402;9.994;2023-05-14T07:55:21;8.20;;;7.50;;
13584;SDS011;6863;48.402;9.994;2023-05-14T07:57:46;8.40;;;7.60;;
13584;SDS011;6863;48.402;9.994;2023-05-14T08:00:12;7.97;;;7.17;;
13584;SDS011;6863;48.402;9.994;2023-05-14T08:02:38;7.73;;;7.03;;
13584;SDS011;6863;48.402;9.994;2023-05-14T08:05:04;7.13;;;6.53;;
13584;SDS011;6863;48.402;9.994;2023-05-14T08:07:30;7.80;;;6.77;;
13584;SDS011;6863;48.402;9.994;2023-05-14T08:09:55;6.70;;;6.10;;
13584;SDS011;6863;48.402;9.994;2023-05-14T08:12:21;6.77;;;6.03;;
13584;SDS011;6863;48.402;9.994;2023-05-14T08:14:46;8.77;;;6.70;;
13584;SDS011;6863;48.402;9.994;2023-05-14T08:17:12;6.43;;;5.83;;
13584;SDS011;6863;48.402;9.994;2023-05-14T08:19:38;5.57;;;5.07;;
13584;SDS011;6863;48.402;9.994;2023-05-14T08:22:04;7.50;;;6.70;;
13584;SDS011;6863;48.402;9.994;2023-05-14T08:24:29;7.20;;;6.43;;
13584;SDS011;6863;48.402;9.994;2023-05-14T08:26:55;7.27;;;6.53;;
13584;SDS011;6863;48.402;9.994;2023-05-14T08:29:21;8.13;;;7.33;;
13584;SDS011;6863;48.402;9.994;2023-05-14T08:31:48;7.57;;;6.83;;
13584;SDS011;6863;48.402;9.994;2023-05-14T08:34:14;7.67;;;6.97;;
13584;SDS011;6863;48.402;9.994;2023-05-14T08:36:40;11.50;;;6.97;;
13584;SDS011;6863;48.402;9.994;2023-05-14T08:39:05;7.10;;;6.43;;
13584;SDS011;6863;48.402;9.994;2023-05-14T08:41:31;8.10;;;7.40;;
13584;SDS011;6863;48.402;9.994;2023-05-14T08:46:42;8.10;;;7.40;;
13584;SDS011;6863;48.402;9.994;2023-05-14T08:51:55;8.07;;;7.37;;
13584;SDS011;6863;48.402;9.994;2023-05-14T08:54:21;18.60;;;8.57;;
13584;SDS011;6863;48.402;9.994;2023-05-14T08:56:49;7.90;;;7.20;;
13584;SDS011;6863;48.402;9.994;2023-05-14T08:59:16;7.23;;;6.63;;
13584;SDS011;6863;48.402;9.994;2023-05-14T09:01:45;10.23;;;7.10;;
13584;SDS011;6863;48.402;9.994;2023-05-14T09:04:14;9.70;;;7.77;;
13584;SDS011;6863;48.402;9.994;2023-05-14T09:06:43;7.93;;;7.13;;
13584;SDS011;6863;48.402;9.994;2023-05-14T09:09:15;7.50;;;6.90;;
13584;SDS011;6863;48.402;9.994;2023-05-14T09:11:41;7.27;;;6.67;;
13584;SDS011;6863;48.402;9.994;2023-05-14T09:14:13;7.43;;;6.83;;
13584;SDS011;6863;48.402;9.994;2023-05-14T09:16:39;7.83;;;7.13;;
13584;SDS011;6863;48.402;9.994;2023-05-14T09:19:06;8.10;;;7.50;;
13584;SDS011;6863;48.402;9.994;2023-05-14T09:21:32;7.30;;;6.70;;
13584;SDS011;6863;48.402;9.994;2023-05-14T09:23:58;7.50;;;6.90;;
13584;SDS011;6863;48.402;9.994;2023-05-14T09:26:25;7.17;;;6.57;;
13584;SDS011;6863;48.402;9.994;2023-05-14T09:28:54;6.63;;;6.13;;
13584;SDS011;6863;48.402;9.994;2023-05-14T09:31:21;7.57;;;7.00;;
13584;SDS011;6863;48.402;9.994;2023-05-14T09:33:49;6.70;;;6.10;;
13584;SDS011;6863;48.402;9.994;2023-05-14T09:36:15;6.68;;;6.15;;
13584;SDS011;6863;48.402;9.994;2023-05-14T09:38:41;7.03;;;6.43;;
13584;SDS011;6863;48.402;9.994;2023-05-14T09:41:07;5.95;;;5.45;;
13584;SDS011;6863;48.402;9.994;2023-05-14T09:43:32;6.85;;;6.25;;
13584;SDS011;6863;48.402;9.994;2023-05-14T09:45:58;7.30;;;6.75;;
13584;SDS011;6863;48.402;9.994;2023-05-14T09:48:24;7.00;;;6.40;;
13584;SDS011;6863;48.402;9.994;2023-05-14T09:50:50;6.78;;;6.28;;
13584;SDS011;6863;48.402;9.994;2023-05-14T09:53:18;22.60;;;7.88;;
13584;SDS011;6863;48.402;9.994;2023-05-14T09:55:44;6.68;;;6.13;;
13584;SDS011;6863;48.402;9.994;2023-05-14T09:58:10;7.03;;;6.45;;
13584;SDS011;6863;48.402;9.994;2023-05-14T10:00:38;6.90;;;6.32;;
13584;SDS011;6863;48.402;9.994;2023-05-14T10:03:07;7.97;;;7.28;;
13584;SDS011;6863;48.402;9.994;2023-05-14T10:05:34;7.90;;;7.10;;
13584;SDS011;6863;48.402;9.994;2023-05-14T10:08:05;7.32;;;6.72;;
13584;SDS011;6863;48.402;9.994;2023-05-14T10:10:36;5.75;;;5.28;;
13584;SDS011;6863;48.402;9.994;2023-05-14T10:13:03;5.65;;;5.25;;
13584;SDS011;6863;48.402;9.994;2023-05-14T10:15:42;5.90;;;5.50;;
13584;SDS011;6863;48.402;9.994;2023-05-14T10:18:15;5.38;;;4.90;;
13584;SDS011;6863;48.402;9.994;2023-05-14T10:20:43;18.23;;;15.30;;
13584;SDS011;6863;48.402;9.994;2023-05-14T10:23:17;9.52;;;6.93;;
13584;SDS011;6863;48.402;9.994;2023-05-14T10:25:42;5.95;;;5.45;;
13584;SDS011;6863;48.402;9.994;2023-05-14T10:28:12;22.27;;;7.18;;
13584;SDS011;6863;48.402;9.994;2023-05-14T10:30:42;5.13;;;4.72;;
13584;SDS011;6863;48.402;9.994;2023-05-14T10:33:11;4.72;;;4.43;;
13584;SDS011;6863;48.402;9.994;2023-05-14T10:38:31;5.63;;;5.10;;
13584;SDS011;6863;48.402;9.994;2023-05-14T10:40:59;5.70;;;5.20;;
13584;SDS011;6863;48.402;9.994;2023-05-14T10:43:38;5.32;;;4.93;;
13584;SDS011;6863;48.402;9.994;2023-05-14T10:46:05;5.45;;;5.05;;
13584;SDS011;6863;48.402;9.994;2023-05-14T10:48:32;5.05;;;4.63;;
13584;SDS011;6863;48.402;9.994;2023-05-14T10:50:59;5.07;;;4.75;;
13584;SDS011;6863;48.402;9.994;2023-05-14T10:53:30;5.90;;;4.93;;
13584;SDS011;6863;48.402;9.994;2023-05-14T10:55:56;4.28;;;3.97;;
13584;SDS011;6863;48.402;9.994;2023-05-14T10:58:22;4.97;;;4.57;;
13584;SDS011;6863;48.402;9.994;2023-05-14T11:00:48;5.10;;;4.70;;
13584;SDS011;6863;48.402;9.994;2023-05-14T11:03:19;5.22;;;4.82;;
13584;SDS011;6863;48.402;9.994;2023-05-14T11:05:45;7.63;;;4.88;;
13584;SDS011;6863;48.402;9.994;2023-05-14T11:08:11;4.55;;;4.30;;
13584;SDS011;6863;48.402;9.994;2023-05-14T11:10:38;5.35;;;4.90;;
13584;SDS011;6863;48.402;9.994;2023-05-14T11:13:03;5.80;;;4.10;;
13584;SDS011;6863;48.402;9.994;2023-05-14T11:15:29;4.10;;;3.80;;
13584;SDS011;6863;48.402;9.994;2023-05-14T11:17:55;4.85;;;4.38;;
13584;SDS011;6863;48.402;9.994;2023-05-14T11:20:21;4.57;;;4.18;;
13584;SDS011;6863;48.402;9.994;2023-05-14T11:22:47;6.72;;;4.88;;
13584;SDS011;6863;48.402;9.994;2023-05-14T11:25:15;4.82;;;4.53;;
13584;SDS011;6863;48.402;9.994;2023-05-14T11:27:42;4.72;;;4.40;;
13584;SDS011;6863;48.402;9.994;2023-05-14T11:32:39;5.22;;;4.82;;
13584;SDS011;6863;48.402;9.994;2023-05-14T11:35:05;4.07;;;3.78;;
13584;SDS011;6863;48.402;9.994;2023-05-14T11:37:31;3.53;;;3.25;;
13584;SDS011;6863;48.402;9.994;2023-05-14T11:40:00;5.55;;;3.63;;
13584;SDS011;6863;48.402;9.994;2023-05-14T11:42:26;3.47;;;3.17;;
13584;SDS011;6863;48.402;9.994;2023-05-14T11:44:51;4.63;;;3.38;;
13584;SDS011;6863;48.402;9.994;2023-05-14T11:47:20;3.67;;;3.38;;
13584;SDS011;6863;48.402;9.994;2023-05-14T11:49:46;3.60;;;3.30;;
13584;SDS011;6863;48.402;9.994;2023-05-14T11:52:13;3.70;;;3.40;;
13584;SDS011;6863;48.402;9.994;2023-05-14T11:54:40;3.58;;;3.28;;
13584;SDS011;6863;48.402;9.994;2023-05-14T11:57:10;3.75;;;3.45;;
13584;SDS011;6863;48.402;9.994;2023-05-14T11:59:38;3.28;;;3.08;;
13584;SDS011;6863;48.402;9.994;2023-05-14T12:02:03;3.80;;;3.50;;
13584;SDS011;6863;48.402;9.994;2023-05-14T12:04:32;4.00;;;3.70;;
13584;SDS011;6863;48.402;9.994;2023-05-14T12:06:58;3.58;;;3.38;;
13584;SDS011;6863;48.402;9.994;2023-05-14T12:09:24;3.47;;;3.03;;
13584;SDS011;6863;48.402;9.994;2023-05-14T12:11:50;3.50;;;3.28;;
13584;SDS011;6863;48.402;9.994;2023-05-14T12:14:22;3.90;;;3.60;;
13584;SDS011;6863;48.402;9.994;2023-05-14T12:16:49;3.28;;;3.08;;
13584;SDS011;6863;48.402;9.994;2023-05-14T12:19:16;4.10;;;3.70;;
13584;SDS011;6863;48.402;9.994;2023-05-14T12:21:43;9.18;;;4.13;;
13584;SDS011;6863;48.402;9.994;2023-05-14T12:24:11;7.07;;;4.13;;
13584;SDS011;6863;48.402;9.994;2023-05-14T12:29:11;3.25;;;3.05;;
13584;SDS011;6863;48.402;9.994;2023-05-14T12:31:37;5.20;;;3.28;;
13584;SDS011;6863;48.402;9.994;2023-05-14T12:34:13;3.25;;;3.05;;
13584;SDS011;6863;48.402;9.994;2023-05-14T12:36:39;3.22;;;2.92;;
13584;SDS011;6863;48.402;9.994;2023-05-14T12:39:05;9.68;;;3.90;;
13584;SDS011;6863;48.402;9.994;2023-05-14T12:41:31;3.50;;;3.20;;
13584;SDS011;6863;48.402;9.994;2023-05-14T12:44:00;4.07;;;3.47;;
13584;SDS011;6863;48.402;9.994;2023-05-14T12:46:30;3.28;;;3.08;;
13584;SDS011;6863;48.402;9.994;2023-05-14T12:48:56;4.80;;;3.83;;
13584;SDS011;6863;48.402;9.994;2023-05-14T12:51:23;4.38;;;3.60;;
13584;SDS011;6863;48.402;9.994;2023-05-14T12:53:49;4.10;;;3.80;;
13584;SDS011;6863;48.402;9.994;2023-05-14T12:56:15;3.58;;;3.28;;
13584;SDS011;6863;48.402;9.994;2023-05-14T12:58:41;4.32;;;3.92;;
13584;SDS011;6863;48.402;9.994;2023-05-14T13:01:07;3.58;;;3.38;;
13584;SDS011;6863;48.402;9.994;2023-05-14T13:03:33;9.43;;;8.63;;
13584;SDS011;6863;48.402;9.994;2023-05-14T13:06:01;3.65;;;3.45;;
13584;SDS011;6863;48.402;9.994;2023-05-14T13:08:27;3.92;;;3.63;;
13584;SDS011;6863;48.402;9.994;2023-05-14T13:10:56;3.97;;;3.58;;
13584;SDS011;6863;48.402;9.994;2023-05-14T13:13:22;5.15;;;4.75;;
13584;SDS011;6863;48.402;9.994;2023-05-14T13:15:48;3.90;;;3.60;;
13584;SDS011;6863;48.402;9.994;2023-05-14T13:18:14;3.80;;;3.50;;
13584;SDS011;6863;48.402;9.994;2023-05-14T13:20:44;4.03;;;3.63;;
13584;SDS011;6863;48.402;9.994;2023-05-14T13:23:13;3.63;;;3.30;;
13584;SDS011;6863;48.402;9.994;2023-05-14T13:25:38;3.42;;;3.13;;
13584;SDS011;6863;48.402;9.994;2023-05-14T13:28:04;3.08;;;2.78;;
13584;SDS011;6863;48.402;9.994;2023-05-14T13:30:31;3.53;;;3.30;;
13584;SDS011;6863;48.402;9.994;2023-05-14T13:33:00;3.00;;;2.80;;
13584;SDS011;6863;48.402;9.994;2023-05-14T13:35:25;3.38;;;2.83;;
13584;SDS011;6863;48.402;9.994;2023-05-14T13:37:51;3.05;;;2.85;;
13584;SDS011;6863;48.402;9.994;2023-05-14T13:40:17;3.20;;;2.92;;
13584;SDS011;6863;48.402;9.994;2023-05-14T13:42:43;3.30;;;3.10;;
13584;SDS011;6863;48.402;9.994;2023-05-14T13:45:09;2.40;;;2.30;;
13584;SDS011;6863;48.402;9.994;2023-05-14T13:47:35;2.75;;;2.55;;
13584;SDS011;6863;48.402;9.994;2023-05-14T13:50:01;2.92;;;2.72;;
13584;SDS011;6863;48.402;9.994;2023-05-14T13:52:29;3.60;;;3.30;;
13584;SDS011;6863;48.402;9.994;2023-05-14T13:54:58;3.40;;;3.15;;
13584;SDS011;6863;48.402;9.994;2023-05-14T13:57:24;3.25;;;2.97;;
13584;SDS011;6863;48.402;9.994;2023-05-14T13:59:52;9.55;;;6.95;;
13584;SDS011;6863;48.402;9.994;2023-05-14T14:02:18;11.43;;;8.75;;
13584;SDS011;6863;48.402;9.994;2023-05-14T14:04:44;4.82;;;3.95;;
13584;SDS011;6863;48.402;9.994;2023-05-14T14:07:10;3.60;;;3.40;;
13584;SDS011;6863;48.402;9.994;2023-05-14T14:09:38;3.75;;;3.35;;
13584;SDS011;6863;48.402;9.994;2023-05-14T14:12:04;2.83;;;2.63;;
13584;SDS011;6863;48.402;9.994;2023-05-14T14:14:31;3.03;;;2.83;;
13584;SDS011;6863;48.402;9.994;2023-05-14T14:16:57;2.90;;;2.70;;
13584;SDS011;6863;48.402;9.994;2023-05-14T14:19:33;4.85;;;3.70;;
13584;SDS011;6863;48.402;9.994;2023-05-14T14:21:58;4.05;;;3.65;;
13584;SDS011;6863;48.402;9.994;2023-05-14T14:24:24;3.58;;;3.28;;
13584;SDS011;6863;48.402;9.994;2023-05-14T14:26:50;3.17;;;2.90;;
13584;SDS011;6863;48.402;9.994;2023-05-14T14:29:21;5.20;;;3.60;;
13584;SDS011;6863;48.402;9.994;2023-05-14T14:31:47;3.80;;;3.50;;
13584;SDS011;6863;48.402;9.994;2023-05-14T14:34:15;4.60;;;3.80;;
13584;SDS011;6863;48.402;9.994;2023-05-14T14:36:47;3.83;;;3.42;;
13584;SDS011;6863;48.402;9.994;2023-05-14T14:39:12;3.90;;;3.60;;
13584;SDS011;6863;48.402;9.994;2023-05-14T14:41:38;4.32;;;4.03;;
13584;SDS011;6863;48.402;9.994;2023-05-14T14:44:07;4.60;;;4.20;;
13584;SDS011;6863;48.402;9.994;2023-05-14T14:46:32;5.22;;;4.82;;
13584;SDS011;6863;48.402;9.994;2023-05-14T14:48:58;4.45;;;4.00;;
13584;SDS011;6863;48.402;9.994;2023-05-14T14:51:24;3.22;;;2.92;;
13584;SDS011;6863;48.402;9.994;2023-05-14T14:53:49;3.97;;;3.67;;
13584;SDS011;6863;48.402;9.994;2023-05-14T14:56:15;4.20;;;3.47;;
13584;SDS011;6863;48.402;9.994;2023-05-14T14:58:46;6.20;;;4.43;;
13584;SDS011;6863;48.402;9.994;2023-05-14T15:01:12;3.83;;;3.45;;
13584;SDS011;6863;48.402;9.994;2023-05-14T15:03:37;4.80;;;4.28;;
13584;SDS011;6863;48.402;9.994;2023-05-14T15:06:09;4.95;;;4.25;;
13584;SDS011;6863;48.402;9.994;2023-05-14T15:08:38;4.20;;;3.90;;
13584;SDS011;6863;48.402;9.994;2023-05-14T15:11:15;4.82;;;4.32;;